Portada
METAR-TAF:

METAR-TAF

Aeropuertos :

Foz do Iguaçu, Paraná, Brasil

Aeropuerto Internacional de Foz do Iguaçu

latitud: 25-31S, longitud: 054-35W, altitud: 180 m

Observación

El informe se hizo hace 27 minutos, a las 20:00 UTC
Viento 7 kt del norte
Temperatura 29°C
Humedad 29%
Presión 1020 hPa
Visibilidad 10 km o más
sin nubes por debajo de 1500 m y sin presencia de cumulonimbus.

METAR: SBFI 252000Z 01007KT CAVOK 29/09 Q1020

Hora: 17:27 (20:27 UTC)

Pronóstico

El informe se hizo hace 4 horas y 57 minutos, a las 15:30 UTC
Pronóstico válido del 25 a las 18 UTC al 26 a las 18 UTC
Viento 7 kt del este
Visibilidad 10 km o más
sin nubes por debajo de 1500 m y sin presencia de cumulonimbus.
Probabilidad 40%
del 25 a las 18 UTC al 25 a las 21 UTC
Viento 12 kt del norte-noreste

TAF: SBFI 251530Z 2518/2618 08007KT CAVOK TX30/2518Z TN15/2609Z PROB40 2518/2521 03012KT RMK PEB

Observaciones y pronósticos meteorológicos de más de 4000 aeropuertos (mensajes METAR y TAF).

Los puntos amarillos y rojos representan las estaciones disponibles.

Ponga el ratón en el punto deseado para ver el nombre de la estación.

Haga clic para ver las observaciones y los pronósticos meteorológicos.

Para cambiar el mapa : haga clic en los botones verdes con una cruz de color negro para hacer un zoom, en el botón verde con un guión para alejar o en las flechas verdes para mapas adyacentes.


METAR-TAF: